Time;durP1;ratioP1;P1;durP2;ratioP2;P2;SDS_P1;SDS_P2;PMS_P1;PMS_P2;Temp;Humidity;BMP_temperature;BMP_pressure;BME280_temperature;BME280_humidity;BME280_pressure;Samples;Min_cycle;Max_cycle;Signal;HPM_P1;HPM_P2
2023/05/04 07:11:47;;;;;;;;;;;;;;;12.35;56.06;98684.53;4949942;24;19935;-67
2023/05/04 07:14:12;;;;;;;;;;;;;;;12.44;55.36;98675.16;4840864;29;20482;-67
2023/05/04 07:16:38;;;;;;;;;;;;;;;12.57;55.83;98691.78;4828488;29;20003;-66
2023/05/04 07:19:05;;;;;;;;;;;;;;;12.60;54.50;98685.47;4844750;29;19931;-65
2023/05/04 07:21:31;;;;;;;;;;;;;;;12.72;54.56;98683.75;4844497;29;19916;-66
2023/05/04 07:23:56;;;;;;;;;;;;;;;12.77;54.75;98682.50;4828255;29;19922;-66
2023/05/04 07:26:21;;;;;;;;;;;;;;;12.90;55.01;98684.25;4844696;29;19993;-65
2023/05/04 07:28:46;;;;;;;;;;;;;;;13.04;54.82;98679.72;4828119;29;19971;-66
2023/05/04 07:31:13;;;;;;;;;;;;;;;13.20;54.46;98678.59;4844299;29;19956;-66
2023/05/04 07:33:38;;;;;;;;;;;;;;;13.28;53.34;98677.16;4827885;29;19920;-65
2023/05/04 07:36:03;;;;;;;;;;;;;;;13.47;53.28;98675.81;4844510;29;19917;-66
2023/05/04 07:38:28;;;;;;;;;;;;;;;13.64;54.01;98667.50;4828011;29;19967;-66
2023/05/04 07:40:54;;;;;;;;;;;;;;;13.80;53.33;98661.09;4844116;29;19978;-66
2023/05/04 07:43:19;;;;;;;;;;;;;;;13.90;52.79;98657.66;4844345;29;19916;-66
2023/05/04 07:45:44;;;;;;;;;;;;;;;14.08;52.60;98659.88;4841737;29;20359;-66
2023/05/04 07:48:10;;;;;;;;;;;;;;;14.27;51.99;98654.88;4848967;29;19953;-66
2023/05/04 07:50:35;;;;;;;;;;;;;;;14.44;52.30;98645.66;4848940;29;19975;-65
2023/05/04 07:53:01;;;;;;;;;;;;;;;14.64;52.21;98652.06;4838324;29;19923;-65
2023/05/04 07:55:27;;;;;;;;;;;;;;;14.72;50.17;98654.94;4862646;29;20393;-66
2023/05/04 07:57:53;;;;;;;;;;;;;;;14.86;50.20;98649.41;4845176;29;19950;-65
2023/05/04 08:00:18;;;;;;;;;;;;;;;15.07;51.48;98649.53;4835336;29;19924;-66
2023/05/04 08:02:44;;;;;;;;;;;;;;;15.25;51.47;98652.47;4832596;29;19920;-64
2023/05/04 08:05:09;;;;;;;;;;;;;;;15.29;49.36;98648.63;4854792;29;19923;-64
2023/05/04 08:07:34;;;;;;;;;;;;;;;15.33;48.87;98650.03;4862432;29;19966;-64
2023/05/04 08:09:59;;;;;;;;;;;;;;;15.53;49.72;98644.94;4861591;29;19916;-64
2023/05/04 08:12:25;;;;;;;;;;;;;;;15.77;51.16;98650.06;4855389;29;20399;-64
2023/05/04 08:14:51;;;;;;;;;;;;;;;15.99;49.34;98642.00;4854544;29;20438;-64
2023/05/04 08:17:16;;;;;;;;;;;;;;;16.19;49.29;98648.25;4845616;29;19972;-64
2023/05/04 08:19:41;;;;;;;;;;;;;;;16.43;49.87;98644.50;4861915;29;19956;-64
2023/05/04 08:22:07;;;;;;;;;;;;;;;16.69;50.14;98643.09;4862022;29;19995;-64
2023/05/04 08:24:32;;;;;;;;;;;;;;;16.93;49.66;98634.84;4829423;29;19921;-64
2023/05/04 08:26:58;;;;;;;;;;;;;;;17.16;47.58;98640.75;4847784;29;19921;-64
2023/05/04 08:29:23;;;;;;;;;;;;;;;17.40;48.90;98636.88;4843552;29;19916;-64
2023/05/04 08:31:48;;;;;;;;;;;;;;;17.60;46.85;98635.94;4843432;29;19924;-63
2023/05/04 08:34:15;;;;;;;;;;;;;;;17.73;44.76;98630.34;4843467;29;19920;-63
2023/05/04 08:36:40;;;;;;;;;;;;;;;17.94;46.31;98638.19;4854092;29;20064;-64
2023/05/04 08:39:06;;;;;;;;;;;;;;;18.09;44.69;98641.25;4845300;29;19976;-64
2023/05/04 08:41:31;;;;;;;;;;;;;;;18.18;45.14;98641.22;4861472;29;19916;-64
2023/05/04 08:43:57;;;;;;;;;;;;;;;18.38;45.44;98652.66;4856820;29;20007;-65
2023/05/04 08:46:23;;;;;;;;;;;;;;;18.69;45.50;98641.78;4836233;29;19917;-65
2023/05/04 08:48:48;;;;;;;;;;;;;;;18.96;46.08;98636.53;4861686;29;19920;-64
2023/05/04 08:51:14;;;;;;;;;;;;;;;19.15;43.21;98640.88;4861380;29;19923;-65
2023/05/04 08:53:41;;;;;;;;;;;;;;;19.15;40.46;98635.56;4844963;29;19927;-64
2023/05/04 08:56:08;;;;;;;;;;;;;;;19.18;40.63;98634.44;4829994;29;19920;-65
2023/05/04 08:58:36;;;;;;;;;;;;;;;19.48;42.77;98630.59;4853793;29;20080;-67
2023/05/04 09:01:01;;;;;;;;;;;;;;;19.67;42.35;98629.63;4837952;29;19980;-66
2023/05/04 09:03:27;;;;;;;;;;;;;;;19.87;42.24;98632.97;4837184;29;19920;-65
2023/05/04 09:05:53;;;;;;;;;;;;;;;19.86;39.15;98623.31;4835335;29;19927;-66
2023/05/04 09:08:19;;;;;;;;;;;;;;;20.14;41.73;98622.19;4837219;29;19976;-64
2023/05/04 09:10:44;;;;;;;;;;;;;;;20.30;41.37;98625.94;4860851;29;20454;-65
2023/05/04 09:13:10;;;;;;;;;;;;;;;20.55;41.15;98619.81;4861280;29;19920;-64
2023/05/04 09:15:35;;;;;;;;;;;;;;;20.67;38.10;98619.53;4836441;29;20215;-65
2023/05/04 09:18:01;;;;;;;;;;;;;;;20.96;39.13;98621.84;4850215;29;19920;-65
2023/05/04 09:20:26;;;;;;;;;;;;;;;21.26;39.39;98612.41;4842917;29;19972;-65
2023/05/04 09:23:01;;;;;;;;;;;;;;;21.59;39.20;98607.19;4844483;29;19968;-65
2023/05/04 09:25:26;;;;;;;;;;;;;;;21.63;36.76;98600.50;4859139;29;19991;-63
2023/05/04 09:27:51;;;;;;;;;;;;;;;21.86;36.58;98601.53;4832753;29;19965;-65
2023/05/04 09:30:19;;;;;;;;;;;;;;;22.09;37.03;98595.47;4834644;29;19988;-64
2023/05/04 09:32:45;;;;;;;;;;;;;;;22.37;36.83;98591.47;4844367;29;19916;-64
2023/05/04 09:35:10;;;;;;;;;;;;;;;22.54;36.92;98591.41;4829266;29;19916;-64
2023/05/04 09:37:41;;;;;;;;;;;;;;;22.87;37.36;98598.28;4834644;29;19920;-63
2023/05/04 09:40:07;;;;;;;;;;;;;;;23.11;36.12;98585.84;4836664;29;19928;-63
2023/05/04 09:42:32;;;;;;;;;;;;;;;23.24;34.46;98588.78;4860635;29;19964;-67
2023/05/04 09:44:58;;;;;;;;;;;;;;;23.30;33.86;98582.72;4860700;29;20113;-66
2023/05/04 09:47:29;;;;;;;;;;;;;;;23.61;33.41;98581.84;4839349;29;19927;-66
2023/05/04 09:49:54;;;;;;;;;;;;;;;23.92;34.43;98573.75;4836197;29;19920;-67
2023/05/04 09:52:20;;;;;;;;;;;;;;;24.13;32.65;98575.72;4844040;29;20386;-67
2023/05/04 09:54:45;;;;;;;;;;;;;;;24.27;30.25;98566.03;4843993;29;20386;-66
2023/05/04 09:57:14;;;;;;;;;;;;;;;24.43;31.54;98562.34;4843971;29;20377;-67
2023/05/04 09:59:39;;;;;;;;;;;;;;;24.67;32.47;98559.38;4828434;29;19935;-65
2023/05/04 10:02:04;;;;;;;;;;;;;;;24.87;31.72;98552.41;4836076;29;19916;-64
2023/05/04 10:04:31;;;;;;;;;;;;;;;25.22;31.70;98547.25;4838493;29;19921;-64
2023/05/04 10:06:56;;;;;;;;;;;;;;;25.56;30.79;98543.03;4839352;29;20351;-64
2023/05/04 10:09:21;;;;;;;;;;;;;;;25.82;30.23;98547.88;4851372;29;19959;-65
2023/05/04 10:11:46;;;;;;;;;;;;;;;26.17;30.37;98543.34;4847136;29;19959;-62
2023/05/04 10:14:11;;;;;;;;;;;;;;;26.43;29.08;98540.00;4825519;29;19916;-64
2023/05/04 10:16:37;;;;;;;;;;;;;;;26.81;30.18;98530.69;4825615;29;19928;-64
2023/05/04 10:19:18;;;;;;;;;;;;;;;26.88;28.06;98534.25;4841185;29;19921;-63
2023/05/04 10:21:55;;;;;;;;;;;;;;;27.10;27.44;98527.66;4817337;29;20015;-61
2023/05/04 10:24:37;;;;;;;;;;;;;;;27.36;28.63;98529.63;4858863;29;20271;-64
2023/05/04 10:27:12;;;;;;;;;;;;;;;27.62;26.68;98526.09;4843504;29;20373;-64
2023/05/04 10:29:38;;;;;;;;;;;;;;;27.81;25.56;98529.88;4839992;29;20530;-64
2023/05/04 10:32:03;;;;;;;;;;;;;;;28.14;26.47;98519.03;4832401;29;19945;-63
2023/05/04 10:34:31;;;;;;;;;;;;;;;28.40;25.34;98503.88;4859527;29;19916;-63
2023/05/04 10:36:57;;;;;;;;;;;;;;;28.58;24.88;98511.28;4860008;29;20302;-62
2023/05/04 10:39:23;;;;;;;;;;;;;;;28.67;25.00;98506.50;4859924;29;19927;-62
2023/05/04 10:42:04;;;;;;;;;;;;;;;28.84;24.04;98502.25;4850589;29;19924;-62
2023/05/04 10:44:48;;;;;;;;;;;;;;;29.34;24.98;98505.09;4852022;29;19927;-63
2023/05/04 10:47:14;;;;;;;;;;;;;;;29.76;25.28;98502.69;4843383;29;19916;-63
2023/05/04 10:49:39;;;;;;;;;;;;;;;29.81;23.87;98492.06;4859756;29;19988;-62
2023/05/04 10:52:17;;;;;;;;;;;;;;;30.10;22.55;98487.81;4846696;29;19928;-59
2023/05/04 10:54:43;;;;;;;;;;;;;;;30.51;24.18;98480.94;4848088;29;19921;-62
2023/05/04 10:57:09;;;;;;;;;;;;;;;30.16;23.19;98481.53;4856809;29;19916;-62
2023/05/04 10:59:34;;;;;;;;;;;;;;;30.10;22.17;98470.75;4843105;29;19927;-62
2023/05/04 11:02:00;;;;;;;;;;;;;;;30.75;22.73;98476.47;4854034;29;19916;-63
2023/05/04 11:04:25;;;;;;;;;;;;;;;31.04;23.00;98468.59;4834857;29;19920;-62
2023/05/04 11:06:57;;;;;;;;;;;;;;;31.05;20.72;98470.25;4843233;29;19920;-63
2023/05/04 11:09:22;;;;;;;;;;;;;;;31.21;20.87;98458.75;4859730;29;19916;-62
2023/05/04 11:11:47;;;;;;;;;;;;;;;31.64;21.45;98463.09;4859318;29;20017;-64
2023/05/04 11:14:39;;;;;;;;;;;;;;;31.18;19.67;98459.22;4832416;29;19927;-64
2023/05/04 11:17:08;;;;;;;;;;;;;;;31.54;18.96;98454.72;4856617;29;20226;-64
2023/05/04 11:19:36;;;;;;;;;;;;;;;32.26;20.57;98457.19;4859546;29;20339;-65
2023/05/04 11:22:01;;;;;;;;;;;;;;;31.90;18.40;98459.09;4859346;29;19916;-66
2023/05/04 11:24:42;;;;;;;;;;;;;;;32.38;19.34;98447.97;4848197;29;20088;-64
2023/05/04 11:27:08;;;;;;;;;;;;;;;32.79;20.84;98445.22;4835359;29;19917;-64
2023/05/04 11:29:33;;;;;;;;;;;;;;;32.87;18.50;98447.56;4859568;29;19916;-63
2023/05/04 11:31:58;;;;;;;;;;;;;;;32.68;17.99;98444.22;4859381;29;19975;-63
2023/05/04 11:34:23;;;;;;;;;;;;;;;32.64;17.08;98440.34;4853015;29;19921;-64
2023/05/04 11:36:49;;;;;;;;;;;;;;;32.01;18.50;98439.31;4845515;29;20007;-64
2023/05/04 11:39:14;;;;;;;;;;;;;;;30.46;18.58;98427.50;4844547;29;19974;-66
2023/05/04 11:41:40;;;;;;;;;;;;;;;30.36;19.61;98439.94;4824286;29;19952;-63
2023/05/04 11:44:05;;;;;;;;;;;;;;;30.73;19.02;98432.56;4848208;29;20378;-65
2023/05/04 11:46:31;;;;;;;;;;;;;;;30.80;20.22;98433.34;4826474;29;19920;-64
2023/05/04 11:48:57;;;;;;;;;;;;;;;31.06;19.76;98429.41;4850563;29;19992;-65
2023/05/04 11:51:23;;;;;;;;;;;;;;;30.81;18.97;98429.56;4828594;29;19927;-64
2023/05/04 11:53:48;;;;;;;;;;;;;;;30.39;18.93;98421.34;4843038;29;19927;-63
2023/05/04 11:56:14;;;;;;;;;;;;;;;30.91;19.29;98424.41;4842178;29;19921;-63
2023/05/04 11:58:39;;;;;;;;;;;;;;;31.54;19.93;98423.00;4843370;29;19976;-64
2023/05/04 12:01:04;;;;;;;;;;;;;;;31.71;19.38;98417.72;4833897;29;19932;-63
2023/05/04 12:03:33;;;;;;;;;;;;;;;31.26;17.58;98420.97;4851547;29;19917;-63
2023/05/04 12:05:59;;;;;;;;;;;;;;;31.86;18.44;98414.50;4849103;29;19960;-64
2023/05/04 12:08:32;;;;;;;;;;;;;;;32.45;17.86;98414.44;4834107;29;19959;-63
2023/05/04 12:11:08;;;;;;;;;;;;;;;32.76;18.66;98418.56;4857589;29;19945;-62
2023/05/04 12:13:33;;;;;;;;;;;;;;;32.75;17.41;98415.00;4862323;29;19917;-61
2023/05/04 12:16:06;;;;;;;;;;;;;;;32.38;17.19;98412.69;4858611;29;20326;-62
2023/05/04 12:18:32;;;;;;;;;;;;;;;32.32;16.97;98404.66;4839819;29;19924;-62
2023/05/04 12:21:06;;;;;;;;;;;;;;;32.71;17.72;98400.28;4842594;29;19979;-62
2023/05/04 12:23:31;;;;;;;;;;;;;;;32.17;17.30;98393.50;4855649;29;19920;-63
2023/05/04 12:25:57;;;;;;;;;;;;;;;31.93;18.03;98396.25;4854307;29;19920;-63
2023/05/04 12:28:25;;;;;;;;;;;;;;;32.11;18.08;98398.00;4849077;29;19920;-62
2023/05/04 12:30:50;;;;;;;;;;;;;;;32.75;17.27;98393.28;4853877;29;20405;-63
2023/05/04 12:33:15;;;;;;;;;;;;;;;32.77;17.81;98399.31;4845356;29;19916;-63
2023/05/04 12:35:41;;;;;;;;;;;;;;;33.55;17.87;98396.84;4861915;29;19916;-64
2023/05/04 12:38:06;;;;;;;;;;;;;;;34.01;16.39;98392.91;4854692;29;19921;-64
2023/05/04 12:40:31;;;;;;;;;;;;;;;33.32;15.62;98390.50;4853525;29;19925;-64
2023/05/04 12:42:57;;;;;;;;;;;;;;;34.38;15.81;98378.66;4857259;29;20390;-64
2023/05/04 12:45:22;;;;;;;;;;;;;;;35.09;15.87;98392.19;4861713;29;20375;-63
2023/05/04 12:47:48;;;;;;;;;;;;;;;35.06;15.42;98391.88;4845167;29;19916;-63
2023/05/04 12:50:13;;;;;;;;;;;;;;;35.63;14.66;98397.53;4844550;29;19958;-62
2023/05/04 12:52:39;;;;;;;;;;;;;;;35.48;15.31;98386.50;4854095;29;20409;-62
2023/05/04 12:55:05;;;;;;;;;;;;;;;35.47;14.91;98387.56;4861217;29;20341;-62
2023/05/04 12:57:30;;;;;;;;;;;;;;;35.74;14.38;98370.31;4861348;29;20458;-62
2023/05/04 12:59:55;;;;;;;;;;;;;;;36.77;13.49;98372.34;4849375;29;19935;-61
2023/05/04 13:02:21;;;;;;;;;;;;;;;36.56;14.01;98372.31;4852377;29;19916;-61
2023/05/04 13:04:46;;;;;;;;;;;;;;;37.09;13.19;98371.31;4861554;29;19916;-62
2023/05/04 13:07:13;;;;;;;;;;;;;;;36.89;13.23;98363.88;4861411;29;19923;-62
2023/05/04 13:09:38;;;;;;;;;;;;;;;37.18;13.45;98369.66;4857430;29;19928;-64
2023/05/04 13:12:04;;;;;;;;;;;;;;;37.03;13.21;98357.66;4852587;29;20003;-64
2023/05/04 13:14:29;;;;;;;;;;;;;;;37.10;12.76;98360.13;4849681;29;19955;-64
2023/05/04 13:16:54;;;;;;;;;;;;;;;37.40;12.87;98353.78;4856380;29;19923;-64
2023/05/04 13:19:20;;;;;;;;;;;;;;;36.51;12.55;98347.75;4861113;29;19920;-65
2023/05/04 13:21:46;;;;;;;;;;;;;;;35.70;12.44;98352.84;4846009;29;20379;-64
2023/05/04 13:24:11;;;;;;;;;;;;;;;36.48;13.05;98347.41;4850734;29;19964;-64
2023/05/04 13:26:37;;;;;;;;;;;;;;;36.62;12.89;98347.75;4844397;29;19939;-65
2023/05/04 13:29:03;;;;;;;;;;;;;;;37.03;13.63;98338.50;4844273;29;20027;-65
2023/05/04 13:31:29;;;;;;;;;;;;;;;37.30;12.15;98345.56;4855609;29;19931;-63
2023/05/04 13:33:54;;;;;;;;;;;;;;;37.92;12.07;98333.44;4852370;29;19920;-65
2023/05/04 13:36:19;;;;;;;;;;;;;;;38.22;11.91;98332.47;4859264;29;19927;-63
2023/05/04 13:38:44;;;;;;;;;;;;;;;37.19;11.94;98327.56;4844293;29;19922;-65
2023/05/04 13:41:10;;;;;;;;;;;;;;;35.75;12.23;98317.38;4860552;29;20351;-63
2023/05/04 13:43:35;;;;;;;;;;;;;;;35.96;13.04;98318.28;4831712;29;20355;-66
2023/05/04 13:46:03;;;;;;;;;;;;;;;35.72;12.46;98317.91;4836421;29;19916;-66
2023/05/04 13:48:31;;;;;;;;;;;;;;;34.95;12.11;98317.38;4860889;29;19916;-63
2023/05/04 13:50:56;;;;;;;;;;;;;;;34.28;13.17;98315.13;4860496;29;19956;-66
2023/05/04 13:53:22;;;;;;;;;;;;;;;33.61;13.61;98314.25;4848411;29;20016;-63
2023/05/04 13:55:47;;;;;;;;;;;;;;;33.96;13.99;98302.19;4849543;29;19952;-64
2023/05/04 13:58:12;;;;;;;;;;;;;;;34.44;14.33;98300.56;4857955;29;19917;-65
2023/05/04 14:00:37;;;;;;;;;;;;;;;35.28;14.21;98296.41;4860122;29;20061;-63
2023/05/04 14:03:03;;;;;;;;;;;;;;;35.68;13.55;98287.63;4855753;29;19920;-64
2023/05/04 14:05:28;;;;;;;;;;;;;;;35.26;14.14;98291.19;4847150;29;19927;-65
2023/05/04 14:07:53;;;;;;;;;;;;;;;35.48;13.34;98285.59;4821166;29;19916;-65
2023/05/04 14:10:19;;;;;;;;;;;;;;;35.06;13.90;98283.69;4859998;29;20375;-66
2023/05/04 14:12:44;;;;;;;;;;;;;;;36.37;13.25;98281.03;4860288;29;20024;-65
2023/05/04 14:15:09;;;;;;;;;;;;;;;36.35;12.51;98283.22;4834866;29;19967;-65
2023/05/04 14:17:35;;;;;;;;;;;;;;;36.86;11.97;98277.81;4850265;29;19955;-65
2023/05/04 14:20:00;;;;;;;;;;;;;;;36.28;12.41;98272.56;4855882;29;19920;-65
2023/05/04 14:22:26;;;;;;;;;;;;;;;35.78;12.23;98273.19;4860297;29;20098;-65
2023/05/04 14:24:51;;;;;;;;;;;;;;;35.80;12.92;98276.50;4841372;29;19916;-66
2023/05/04 14:27:16;;;;;;;;;;;;;;;35.87;12.79;98266.16;4845212;29;19920;-63
2023/05/04 14:29:42;;;;;;;;;;;;;;;36.66;13.13;98272.38;4851903;29;20359;-62
2023/05/04 14:32:07;;;;;;;;;;;;;;;37.22;12.46;98267.66;4860292;29;20357;-65
2023/05/04 14:34:32;;;;;;;;;;;;;;;37.19;11.55;98261.94;4859915;29;19999;-62
2023/05/04 14:36:57;;;;;;;;;;;;;;;37.77;10.70;98256.84;4850218;29;20239;-66
2023/05/04 14:39:23;;;;;;;;;;;;;;;37.50;11.32;98255.31;4850865;29;19921;-66
2023/05/04 14:41:51;;;;;;;;;;;;;;;37.70;11.29;98242.66;4859765;29;19923;-65
2023/05/04 14:44:16;;;;;;;;;;;;;;;37.39;11.82;98242.75;4859885;29;20293;-65
2023/05/04 14:46:41;;;;;;;;;;;;;;;36.97;11.84;98249.41;4853505;29;19920;-64
2023/05/04 14:49:07;;;;;;;;;;;;;;;36.93;11.51;98244.75;4848264;29;19920;-66
2023/05/04 14:51:32;;;;;;;;;;;;;;;36.36;12.03;98235.72;4851958;29;19923;-60
2023/05/04 14:53:58;;;;;;;;;;;;;;;36.49;11.20;98240.66;4859791;29;19917;-65
2023/05/04 14:56:23;;;;;;;;;;;;;;;36.77;11.17;98236.56;4843305;29;19923;-65
2023/05/04 14:58:48;;;;;;;;;;;;;;;36.52;11.35;98226.47;4846757;29;20137;-64
2023/05/04 15:01:14;;;;;;;;;;;;;;;36.34;12.03;98225.06;4851671;29;19924;-65
2023/05/04 15:03:39;;;;;;;;;;;;;;;37.01;11.93;98216.88;4859705;29;20323;-64
2023/05/04 15:06:05;;;;;;;;;;;;;;;36.03;12.08;98223.38;4859866;29;19960;-65
2023/05/04 15:08:30;;;;;;;;;;;;;;;36.78;11.48;98216.31;4836103;29;19926;-65
2023/05/04 15:10:58;;;;;;;;;;;;;;;37.13;11.40;98213.81;4848463;29;19920;-64
2023/05/04 15:13:23;;;;;;;;;;;;;;;37.12;10.98;98214.94;4858454;29;19916;-65
2023/05/04 15:15:48;;;;;;;;;;;;;;;36.74;11.27;98208.97;4843150;29;20294;-66
2023/05/04 15:18:14;;;;;;;;;;;;;;;37.12;11.34;98198.53;4856533;29;20018;-63
2023/05/04 15:20:39;;;;;;;;;;;;;;;37.49;12.20;98211.81;4848192;29;20015;-63
2023/05/04 15:23:09;;;;;;;;;;;;;;;38.00;11.33;98206.94;4855364;29;19916;-62
2023/05/04 15:25:35;;;;;;;;;;;;;;;38.12;11.16;98203.81;4863228;29;19941;-63
2023/05/04 15:28:00;;;;;;;;;;;;;;;38.07;11.15;98194.84;4863047;29;19920;-64
2023/05/04 15:30:25;;;;;;;;;;;;;;;38.37;11.10;98208.34;4855664;29;19921;-63
2023/05/04 15:32:50;;;;;;;;;;;;;;;38.46;10.57;98203.06;4848317;29;19916;-63
2023/05/04 15:35:16;;;;;;;;;;;;;;;38.55;10.18;98197.78;4840935;29;20162;-63
2023/05/04 15:37:41;;;;;;;;;;;;;;;38.56;10.33;98202.16;4842581;29;19916;-63
2023/05/04 15:40:06;;;;;;;;;;;;;;;38.10;10.08;98197.84;4842336;29;19924;-63
2023/05/04 15:42:32;;;;;;;;;;;;;;;37.38;10.70;98191.88;4836657;29;19927;-62
2023/05/04 15:44:57;;;;;;;;;;;;;;;37.15;11.01;98187.84;4857043;29;19920;-64
2023/05/04 15:47:22;;;;;;;;;;;;;;;37.37;10.32;98189.41;4862102;29;19916;-64
2023/05/04 15:49:47;;;;;;;;;;;;;;;37.58;9.64;98191.00;4862098;29;19972;-64
2023/05/04 15:52:13;;;;;;;;;;;;;;;37.26;10.28;98188.63;4851753;29;19936;-62
2023/05/04 15:54:38;;;;;;;;;;;;;;;37.29;10.58;98183.44;4850612;29;19924;-64
2023/05/04 15:57:03;;;;;;;;;;;;;;;36.91;9.74;98173.13;4841835;29;19964;-63
2023/05/04 15:59:28;;;;;;;;;;;;;;;36.73;10.64;98180.00;4861231;29;19920;-64
2023/05/04 16:01:54;;;;;;;;;;;;;;;37.01;10.55;98176.69;4844130;29;19929;-63
2023/05/04 16:04:19;;;;;;;;;;;;;;;36.87;10.07;98177.53;4851178;29;19947;-62
2023/05/04 16:06:44;;;;;;;;;;;;;;;36.87;10.39;98170.13;4845927;29;19921;-63
2023/05/04 16:09:10;;;;;;;;;;;;;;;36.80;10.25;98169.63;4854316;29;20042;-62
2023/05/04 16:11:36;;;;;;;;;;;;;;;36.50;11.30;98173.19;4861348;29;19956;-62
2023/05/04 16:14:01;;;;;;;;;;;;;;;35.80;11.82;98170.09;4849396;29;19927;-64
2023/05/04 16:16:26;;;;;;;;;;;;;;;35.14;11.97;98174.19;4853521;29;19924;-64
2023/05/04 16:18:52;;;;;;;;;;;;;;;33.93;12.43;98172.13;4861933;29;19995;-62
2023/05/04 16:21:17;;;;;;;;;;;;;;;33.07;12.57;98170.00;4844945;29;20144;-61
2023/05/04 16:23:42;;;;;;;;;;;;;;;32.55;13.19;98164.88;4853956;29;20314;-65
2023/05/04 16:26:07;;;;;;;;;;;;;;;31.97;13.99;98168.78;4841912;29;20298;-65
2023/05/04 16:28:33;;;;;;;;;;;;;;;31.68;14.04;98168.75;4853901;29;19923;-65
2023/05/04 16:30:58;;;;;;;;;;;;;;;31.56;14.13;98176.13;4844811;29;19916;-65
2023/05/04 16:33:26;;;;;;;;;;;;;;;31.52;12.66;98169.53;4860981;29;20367;-65
2023/05/04 16:35:51;;;;;;;;;;;;;;;31.00;12.82;98166.81;4852860;29;20293;-65
2023/05/04 16:38:18;;;;;;;;;;;;;;;31.09;13.38;98170.81;4853814;29;20405;-66
2023/05/04 16:40:43;;;;;;;;;;;;;;;30.79;14.03;98169.06;4861103;29;19920;-64
2023/05/04 16:43:09;;;;;;;;;;;;;;;30.43;14.42;98172.78;4861053;29;19923;-65
2023/05/04 16:45:34;;;;;;;;;;;;;;;29.95;14.79;98166.44;4852256;29;19920;-64
2023/05/04 16:47:59;;;;;;;;;;;;;;;29.80;14.49;98168.72;4850806;29;19921;-65
2023/05/04 16:50:25;;;;;;;;;;;;;;;29.45;14.85;98165.84;4860416;29;19963;-64
2023/05/04 16:52:50;;;;;;;;;;;;;;;28.98;15.41;98155.56;4862095;29;19916;-64
2023/05/04 16:55:15;;;;;;;;;;;;;;;28.79;15.61;98156.59;4857118;29;19948;-65
2023/05/04 16:57:40;;;;;;;;;;;;;;;28.39;15.90;98155.13;4846543;29;19932;-64
2023/05/04 17:00:06;;;;;;;;;;;;;;;28.48;16.55;98150.25;4853362;29;19927;-65
2023/05/04 17:02:31;;;;;;;;;;;;;;;28.41;16.68;98145.97;4861224;29;19924;-64
2023/05/04 17:04:56;;;;;;;;;;;;;;;28.15;16.30;98145.13;4861327;29;19955;-64
2023/05/04 17:07:21;;;;;;;;;;;;;;;27.81;16.57;98143.72;4851723;29;19970;-64
2023/05/04 17:09:47;;;;;;;;;;;;;;;27.41;16.94;98149.28;4853268;29;20390;-63
2023/05/04 17:12:13;;;;;;;;;;;;;;;27.19;17.16;98143.38;4844552;29;20433;-66
2023/05/04 17:14:39;;;;;;;;;;;;;;;27.04;17.38;98153.50;4861376;29;19928;-65
2023/05/04 17:17:05;;;;;;;;;;;;;;;26.94;17.18;98146.72;4853196;29;19920;-64
2023/05/04 17:19:30;;;;;;;;;;;;;;;26.68;18.13;98150.28;4851450;29;20417;-65
2023/05/04 17:21:56;;;;;;;;;;;;;;;26.34;19.06;98153.19;4855941;29;19917;-64
2023/05/04 17:24:21;;;;;;;;;;;;;;;25.99;19.33;98146.16;4861024;29;19916;-64
2023/05/04 17:26:46;;;;;;;;;;;;;;;25.57;20.11;98153.47;4860236;29;19927;-64
2023/05/04 17:29:11;;;;;;;;;;;;;;;25.24;20.52;98158.72;4841396;29;19921;-64
2023/05/04 17:31:36;;;;;;;;;;;;;;;25.04;20.79;98153.22;4849438;29;20395;-64
2023/05/04 17:34:02;;;;;;;;;;;;;;;24.84;21.02;98163.88;4842601;29;20391;-65
2023/05/04 17:36:27;;;;;;;;;;;;;;;24.54;21.64;98157.88;4842404;29;19945;-64
2023/05/04 17:38:52;;;;;;;;;;;;;;;24.37;21.51;98162.69;4828789;29;20011;-64
2023/05/04 17:41:17;;;;;;;;;;;;;;;24.34;21.60;98168.41;4845266;29;20020;-66
2023/05/04 17:43:44;;;;;;;;;;;;;;;24.30;21.35;98164.47;4846184;29;20013;-65
2023/05/04 17:46:09;;;;;;;;;;;;;;;24.11;21.49;98168.63;4848561;29;20570;-65
2023/05/04 17:48:35;;;;;;;;;;;;;;;23.86;22.22;98168.19;4844006;29;19921;-63
2023/05/04 17:51:00;;;;;;;;;;;;;;;23.60;22.31;98174.06;4836497;29;19931;-64
2023/05/04 17:53:26;;;;;;;;;;;;;;;23.34;22.90;98171.09;4833285;29;19980;-63
2023/05/04 17:55:51;;;;;;;;;;;;;;;23.13;22.42;98177.19;4839706;29;19924;-65
2023/05/04 17:58:16;;;;;;;;;;;;;;;23.05;22.76;98182.63;4849456;29;20011;-65
2023/05/04 18:00:42;;;;;;;;;;;;;;;22.77;23.37;98183.25;4826308;29;20012;-65
2023/05/04 18:03:07;;;;;;;;;;;;;;;22.54;24.30;98196.69;4832711;29;20006;-65
2023/05/04 18:05:32;;;;;;;;;;;;;;;22.30;24.27;98189.72;4841877;29;20008;-65
2023/05/04 18:07:57;;;;;;;;;;;;;;;22.10;25.18;98193.84;4841872;29;20008;-63
2023/05/04 18:10:22;;;;;;;;;;;;;;;21.97;25.09;98200.59;4825763;29;20094;-63
2023/05/04 18:12:48;;;;;;;;;;;;;;;21.75;25.18;98204.09;4848298;29;19920;-64
2023/05/04 18:15:13;;;;;;;;;;;;;;;21.60;24.77;98205.84;4849385;29;19923;-65
2023/05/04 18:17:38;;;;;;;;;;;;;;;21.36;25.22;98212.97;4859978;29;19920;-64
2023/05/04 18:20:04;;;;;;;;;;;;;;;21.14;25.93;98209.19;4828070;29;19927;-64
2023/05/04 18:22:29;;;;;;;;;;;;;;;21.04;27.18;98216.56;4844232;29;19976;-63
2023/05/04 18:24:55;;;;;;;;;;;;;;;20.75;28.13;98219.78;4852205;29;20014;-64
2023/05/04 18:27:20;;;;;;;;;;;;;;;20.49;28.64;98218.13;4838459;29;20035;-65
2023/05/04 18:29:47;;;;;;;;;;;;;;;20.33;28.99;98215.47;4851952;29;20396;-64
2023/05/04 18:32:12;;;;;;;;;;;;;;;20.14;29.71;98221.97;4830830;29;19928;-66
2023/05/04 18:34:37;;;;;;;;;;;;;;;20.00;30.01;98217.28;4841195;29;19917;-63
2023/05/04 18:37:03;;;;;;;;;;;;;;;19.76;30.89;98218.09;4841539;29;19916;-63
2023/05/04 18:39:28;;;;;;;;;;;;;;;19.64;30.87;98221.03;4841359;29;20004;-63
2023/05/04 18:41:53;;;;;;;;;;;;;;;19.45;31.83;98221.28;4823632;29;20382;-64
2023/05/04 18:44:18;;;;;;;;;;;;;;;19.35;32.10;98217.91;4840511;29;19956;-64
2023/05/04 18:46:43;;;;;;;;;;;;;;;19.21;31.64;98222.84;4852834;29;20001;-64
2023/05/04 18:49:09;;;;;;;;;;;;;;;19.11;31.21;98224.78;4859809;29;19964;-62
2023/05/04 18:51:34;;;;;;;;;;;;;;;19.00;31.79;98217.09;4847223;29;19955;-64
2023/05/04 18:54:00;;;;;;;;;;;;;;;18.85;31.72;98218.66;4840999;29;20442;-67
2023/05/04 18:56:25;;;;;;;;;;;;;;;18.69;31.95;98225.53;4837514;29;19973;-65
2023/05/04 18:58:50;;;;;;;;;;;;;;;18.60;31.39;98221.13;4853855;29;20023;-65
2023/05/04 19:01:16;;;;;;;;;;;;;;;18.51;31.58;98216.75;4860180;29;20025;-63
2023/05/04 19:03:43;;;;;;;;;;;;;;;18.47;30.98;98224.19;4854518;29;20409;-63
2023/05/04 19:06:08;;;;;;;;;;;;;;;18.40;31.30;98224.97;4851762;29;20347;-65
2023/05/04 19:08:34;;;;;;;;;;;;;;;18.30;31.11;98229.53;4859801;29;19921;-64
2023/05/04 19:11:02;;;;;;;;;;;;;;;18.25;30.74;98222.84;4838864;29;19924;-65
2023/05/04 19:13:27;;;;;;;;;;;;;;;18.13;30.59;98234.69;4862136;29;20055;-64
2023/05/04 19:15:52;;;;;;;;;;;;;;;18.05;31.10;98229.31;4843195;29;20051;-65
2023/05/04 19:18:17;;;;;;;;;;;;;;;18.00;29.73;98228.94;4843304;29;20000;-61
2023/05/04 19:20:43;;;;;;;;;;;;;;;17.92;30.18;98242.13;4851786;29;19920;-62
2023/05/04 19:23:09;;;;;;;;;;;;;;;17.87;30.93;98236.44;4844818;29;20378;-63
2023/05/04 19:25:34;;;;;;;;;;;;;;;17.79;30.40;98237.19;4827193;29;19920;-62
2023/05/04 19:28:00;;;;;;;;;;;;;;;17.65;30.98;98233.22;4835590;29;19916;-65
2023/05/04 19:30:25;;;;;;;;;;;;;;;17.58;31.24;98233.94;4860702;29;19923;-65
2023/05/04 19:32:51;;;;;;;;;;;;;;;17.52;30.05;98220.28;4854184;29;19967;-65
2023/05/04 19:35:17;;;;;;;;;;;;;;;17.41;30.47;98220.50;4849603;29;19964;-65
2023/05/04 19:37:43;;;;;;;;;;;;;;;17.32;31.04;98230.16;4840280;29;19920;-65
2023/05/04 19:40:08;;;;;;;;;;;;;;;17.17;31.18;98225.47;4858164;29;19977;-65
2023/05/04 19:42:33;;;;;;;;;;;;;;;17.08;31.93;98227.22;4862995;29;19920;-62
2023/05/04 19:44:58;;;;;;;;;;;;;;;16.97;31.81;98225.56;4839492;29;19920;-64
2023/05/04 19:47:24;;;;;;;;;;;;;;;16.83;32.63;98234.81;4842146;29;20048;-64
2023/05/04 19:49:49;;;;;;;;;;;;;;;16.71;33.72;98235.94;4847985;29;20019;-64
2023/05/04 19:52:14;;;;;;;;;;;;;;;16.62;34.35;98242.09;4862703;29;20003;-64